首页
METAR-TAF:

METAR-TAF

机场 :

乔莫·肯雅塔国际机场

奈洛比, 肯尼亚

纬度: 01-19S, 经度: 036-55E, 海拔: 1624米

当前天气观测

该预报发布于23分钟前的23:30 UTC
风速8节,风向东转东北
温度 17°C
湿度 88%
气压 1021 hPa
能见度10公里或以上
散云层高于1700英尺

METAR: HKJK 212330Z 07008KT 9999 SCT017 17/15 Q1021

时间: 02:53 (23:53 UTC)

预报

该预报发布于6小时和53分钟前的17:00 UTC
预报有效从21日的 18点(UTC)到 22日的 24点(UTC)
风速5节,风向北转东北
能见度10公里或以上
多云层高于2000英尺
短暂存在
从 22日的 00点(UTC)到 22日的 06点(UTC)
多云层高于1800英尺
成为
从 22日的 08点(UTC)到 22日的 11点(UTC)
风速10节,风向
多云层高于2800英尺
短暂存在
从 22日的 12点(UTC)到 22日的 18点(UTC)
少量云层高于2100英尺, 积雨云.
多云层高于2200英尺
多云层高于8000英尺
小阵雨
成为
从 22日的 20点(UTC)到 22日的 23点(UTC)
风速5节,风向北转东北
多云层高于2000英尺

TAF: HKJK 211700Z 2118/2224 03005KT 9999 BKN020 TEMPO 2200/2206 BKN018 BECMG 2208/2211 09010KT BKN028 TEMPO 2212/2218 -SHRA FEW021CB BKN022 BKN080 BECMG 2220/2223 03005KT BKN020

超过4000个机场的气象观测和天气预报(METAR&TAF报告)。

可查询的气象台以黄色和红色小点在地图上表示。

将鼠标移到小点上方,可查看气象台名称。

然后点击查看天气观测和预报。

如需切换地图:点击带黑十字的绿色按钮放大地图;点击带横线的绿色按钮缩小地图;或者点击绿色箭头查看邻近地区的地图。


METAR-TAF: